createdAt,value
2023-05-04T00:01:43.538Z,9.09
2023-05-04T00:06:46.243Z,8.96
2023-05-04T00:11:50.261Z,9.08
2023-05-04T00:16:53.209Z,9.01
2023-05-04T00:21:55.899Z,8.90
2023-05-04T00:26:59.945Z,8.89
2023-05-04T00:32:02.658Z,8.70
2023-05-04T00:37:06.325Z,8.71
2023-05-04T00:42:11.046Z,8.67
2023-05-04T00:47:13.968Z,8.67
2023-05-04T00:52:17.301Z,8.61
2023-05-04T00:57:21.630Z,8.51
2023-05-04T01:02:24.346Z,8.53
2023-05-04T01:07:30.832Z,8.44
2023-05-04T01:12:35.744Z,8.32
2023-05-04T01:17:38.630Z,8.44
2023-05-04T01:22:42.953Z,8.30
2023-05-04T01:27:48.399Z,8.27
2023-05-04T01:32:51.637Z,8.18
2023-05-04T01:37:55.933Z,8.12
2023-05-04T01:42:58.641Z,8.39
2023-05-04T01:48:01.642Z,8.29
2023-05-04T01:53:05.936Z,8.23
2023-05-04T01:58:08.654Z,8.12
2023-05-04T02:03:11.523Z,7.92
2023-05-04T02:08:15.688Z,7.90
2023-05-04T02:13:18.412Z,7.84
2023-05-04T02:18:21.235Z,7.68
2023-05-04T02:23:26.304Z,7.76
2023-05-04T02:28:29.013Z,7.77
2023-05-04T02:33:31.872Z,7.82
2023-05-04T02:38:36.052Z,7.86
2023-05-04T02:43:39.689Z,7.73
2023-05-04T02:48:42.398Z,7.78
2023-05-04T02:53:46.501Z,7.72
2023-05-04T02:58:49.200Z,7.74
2023-05-04T03:03:51.990Z,7.70
2023-05-04T03:08:56.455Z,7.60
2023-05-04T03:13:59.146Z,7.60
2023-05-04T03:19:01.874Z,7.57
2023-05-04T03:24:07.584Z,7.59
2023-05-04T03:29:10.694Z,7.66
2023-05-04T03:34:15.186Z,7.41
2023-05-04T03:39:19.376Z,7.36
2023-05-04T03:44:22.550Z,7.34
2023-05-04T03:49:25.357Z,7.42
2023-05-04T03:54:29.387Z,7.55
2023-05-04T03:59:32.125Z,7.40
2023-05-04T04:04:36.158Z,7.29
2023-05-04T04:09:40.337Z,7.40
2023-05-04T04:14:44.207Z,7.39
2023-05-04T04:19:46.883Z,7.38
2023-05-04T04:24:50.896Z,7.41
2023-05-04T04:29:53.606Z,7.46
2023-05-04T04:34:56.530Z,7.42
2023-05-04T04:40:01.455Z,7.28
2023-05-04T04:45:05.935Z,7.65
2023-05-04T04:50:09.634Z,7.61
2023-05-04T04:55:15.454Z,7.50
2023-05-04T05:00:19.344Z,7.69
2023-05-04T05:05:22.180Z,7.92
2023-05-04T05:10:26.213Z,7.84
2023-05-04T05:15:28.930Z,7.80
2023-05-04T05:20:31.661Z,7.99
2023-05-04T05:25:35.713Z,8.18
2023-05-04T05:30:38.423Z,8.02
2023-05-04T05:35:41.252Z,8.27
2023-05-04T05:40:45.303Z,8.15
2023-05-04T05:45:48.580Z,8.20
2023-05-04T05:50:51.281Z,8.32
2023-05-04T05:55:55.289Z,8.27
2023-05-04T06:00:57.982Z,8.42
2023-05-04T06:06:00.628Z,8.46
2023-05-04T06:11:04.677Z,8.58
2023-05-04T06:16:07.463Z,8.69
2023-05-04T06:21:10.269Z,8.84
2023-05-04T06:26:14.329Z,9.03
2023-05-04T06:31:17.187Z,9.28
2023-05-04T06:36:19.973Z,9.39
2023-05-04T06:41:24.002Z,9.44
2023-05-04T06:46:26.852Z,9.47
2023-05-04T06:51:29.557Z,9.98
2023-05-04T06:56:33.758Z,10.78
2023-05-04T07:01:36.795Z,10.88
2023-05-04T07:06:39.710Z,10.90
2023-05-04T07:11:43.854Z,11.38
2023-05-04T07:16:46.584Z,11.53
2023-05-04T07:21:49.383Z,11.42
2023-05-04T07:26:53.418Z,11.75
2023-05-04T07:31:56.244Z,12.16
2023-05-04T07:36:59.022Z,12.12
2023-05-04T07:42:03.558Z,12.31
2023-05-04T07:47:06.483Z,12.38
2023-05-04T07:52:09.177Z,12.51
2023-05-04T07:57:13.230Z,12.65
2023-05-04T08:02:15.990Z,12.79
2023-05-04T08:07:19.237Z,12.96
2023-05-04T08:12:23.952Z,13.35
2023-05-04T08:17:26.946Z,13.43
2023-05-04T08:22:29.872Z,13.62
2023-05-04T08:27:33.944Z,13.80
2023-05-04T08:32:36.888Z,14.22
2023-05-04T08:37:39.639Z,14.30
2023-05-04T08:42:44.261Z,14.41
2023-05-04T08:47:47.147Z,14.75
2023-05-04T08:52:50.344Z,14.92
2023-05-04T08:57:54.731Z,14.92
2023-05-04T09:02:59.649Z,15.27
2023-05-04T09:08:02.424Z,15.44
2023-05-04T09:13:06.550Z,15.64
2023-05-04T09:18:10.355Z,15.79
2023-05-04T09:23:14.171Z,15.94
2023-05-04T09:28:18.870Z,16.14
2023-05-04T09:33:27.187Z,16.26
2023-05-04T09:38:31.447Z,16.64
2023-05-04T09:43:40.158Z,16.86
2023-05-04T09:48:51.626Z,16.90
2023-05-04T09:53:54.855Z,17.25
2023-05-04T09:58:59.568Z,17.21
2023-05-04T10:04:04.002Z,17.68
2023-05-04T10:09:06.802Z,17.83
2023-05-04T10:14:10.885Z,17.68
2023-05-04T10:19:25.866Z,17.98
2023-05-04T10:25:02.342Z,18.16
2023-05-04T10:30:07.936Z,18.15
2023-05-04T10:35:11.816Z,17.96
2023-05-04T10:40:14.684Z,18.37
2023-05-04T10:45:18.832Z,18.71
2023-05-04T10:50:21.508Z,19.05
2023-05-04T10:55:25.955Z,19.35
2023-05-04T11:00:38.356Z,18.94
2023-05-04T11:05:42.209Z,18.80
2023-05-04T11:10:45.182Z,19.27
2023-05-04T11:15:51.964Z,19.65
2023-05-04T11:20:55.982Z,19.82
2023-05-04T11:25:58.974Z,19.70
2023-05-04T11:31:04.020Z,19.55
2023-05-04T11:36:07.512Z,19.99
2023-05-04T11:41:10.742Z,20.06
2023-05-04T11:46:16.427Z,20.26
2023-05-04T11:51:19.622Z,20.64
2023-05-04T11:56:22.707Z,20.29
2023-05-04T12:01:26.784Z,20.55
2023-05-04T12:06:33.752Z,20.54
2023-05-04T12:11:38.227Z,21.14
2023-05-04T12:16:43.045Z,21.11
2023-05-04T12:21:53.514Z,21.26
2023-05-04T12:26:56.228Z,21.69
2023-05-04T12:32:00.344Z,21.48
2023-05-04T12:37:03.071Z,21.68
2023-05-04T12:42:05.956Z,22.06
2023-05-04T12:47:10.236Z,22.17
2023-05-04T12:52:12.927Z,22.04
2023-05-04T12:57:15.683Z,22.63
2023-05-04T13:02:19.706Z,22.43
2023-05-04T13:07:22.420Z,22.47
2023-05-04T13:12:25.554Z,22.55
2023-05-04T13:17:30.794Z,22.51
2023-05-04T13:22:33.748Z,22.53
2023-05-04T13:27:36.465Z,22.43
2023-05-04T13:32:40.671Z,22.53
2023-05-04T13:37:43.413Z,22.27
2023-05-04T13:42:46.124Z,22.58
2023-05-04T13:47:50.364Z,22.93
2023-05-04T13:52:53.134Z,22.87
2023-05-04T13:57:55.773Z,22.85
2023-05-04T14:03:00.019Z,22.71
2023-05-04T14:08:02.866Z,22.83
2023-05-04T14:13:05.653Z,22.79
2023-05-04T14:18:09.752Z,22.88
2023-05-04T14:23:12.446Z,22.94
2023-05-04T14:28:15.405Z,22.82
2023-05-04T14:33:19.454Z,22.54
2023-05-04T14:38:22.133Z,22.64
2023-05-04T14:43:24.953Z,22.61
2023-05-04T14:48:29.097Z,22.83
2023-05-04T14:53:37.060Z,22.55
2023-05-04T14:58:41.392Z,22.36
2023-05-04T15:03:45.573Z,22.52
2023-05-04T15:08:48.453Z,22.63
2023-05-04T15:13:51.173Z,22.39
2023-05-04T15:18:55.248Z,22.41
2023-05-04T15:23:58.006Z,22.23
2023-05-04T15:29:00.742Z,22.34
2023-05-04T15:34:04.912Z,22.19
2023-05-04T15:39:08.294Z,21.97
2023-05-04T15:44:11.000Z,22.21
2023-05-04T15:49:15.112Z,21.91
2023-05-04T15:54:17.830Z,21.89
2023-05-04T15:59:20.541Z,21.85
2023-05-04T16:04:24.556Z,21.85
2023-05-04T16:09:28.020Z,21.88
2023-05-04T16:14:30.871Z,21.68
2023-05-04T16:19:34.999Z,21.65
2023-05-04T16:24:37.698Z,21.72
2023-05-04T16:29:40.386Z,21.81
2023-05-04T16:34:44.406Z,21.77
2023-05-04T16:39:47.105Z,21.61
2023-05-04T16:44:49.952Z,21.62
2023-05-04T16:49:53.989Z,21.39
2023-05-04T16:54:57.046Z,21.33
2023-05-04T17:00:00.000Z,21.20
2023-05-04T17:05:06.473Z,21.05
2023-05-04T17:10:11.246Z,20.99
2023-05-04T17:15:13.953Z,20.81
2023-05-04T17:20:18.191Z,20.67
2023-05-04T17:25:21.617Z,20.61
2023-05-04T17:30:24.410Z,20.41
2023-05-04T17:35:28.465Z,20.32
2023-05-04T17:40:31.161Z,20.33
2023-05-04T17:45:34.956Z,20.07
2023-05-04T17:50:40.030Z,20.11
2023-05-04T17:55:42.780Z,19.93
2023-05-04T18:00:45.481Z,19.91
2023-05-04T18:05:49.500Z,19.79
2023-05-04T18:10:52.161Z,19.54
2023-05-04T18:15:55.063Z,19.52
2023-05-04T18:21:00.710Z,19.34
2023-05-04T18:26:03.508Z,19.27
2023-05-04T18:31:06.738Z,19.13
2023-05-04T18:36:10.816Z,18.97
2023-05-04T18:41:13.484Z,18.81
2023-05-04T18:46:16.236Z,18.65
2023-05-04T18:51:20.309Z,18.44
2023-05-04T18:56:23.071Z,18.42
2023-05-04T19:01:27.675Z,18.19
2023-05-04T19:06:32.173Z,18.10
2023-05-04T19:11:34.860Z,17.95
2023-05-04T19:16:37.560Z,17.87
2023-05-04T19:21:42.707Z,17.80
2023-05-04T19:26:45.739Z,17.69
2023-05-04T19:31:48.632Z,17.55
2023-05-04T19:36:52.715Z,17.51
2023-05-04T19:41:55.360Z,17.34
2023-05-04T19:46:58.081Z,17.18
2023-05-04T19:52:02.161Z,17.21
2023-05-04T19:57:04.961Z,17.12
2023-05-04T20:02:08.748Z,16.93
2023-05-04T20:07:12.849Z,16.86
2023-05-04T20:12:15.531Z,16.80
2023-05-04T20:17:18.321Z,16.72
2023-05-04T20:22:22.374Z,16.61
2023-05-04T20:27:25.091Z,16.59
2023-05-04T20:32:28.867Z,16.53
2023-05-04T20:37:32.973Z,16.28
2023-05-04T20:42:35.916Z,16.37
2023-05-04T20:47:38.675Z,16.35
2023-05-04T20:52:42.688Z,16.31
2023-05-04T20:57:45.400Z,16.22
2023-05-04T21:02:48.406Z,16.06
2023-05-04T21:07:52.860Z,15.96
2023-05-04T21:12:56.906Z,15.94
2023-05-04T21:17:59.683Z,15.83
2023-05-04T21:23:03.754Z,15.87
2023-05-04T21:28:06.550Z,15.78
2023-05-04T21:33:09.259Z,15.75
2023-05-04T21:38:14.071Z,15.67
2023-05-04T21:43:16.767Z,15.52
2023-05-04T21:48:19.426Z,15.43
2023-05-04T21:53:23.446Z,15.42
2023-05-04T21:58:26.379Z,15.44
2023-05-04T22:03:29.465Z,15.37
2023-05-04T22:08:33.537Z,15.32
2023-05-04T22:13:36.226Z,15.27
2023-05-04T22:18:39.382Z,15.17
2023-05-04T22:23:43.412Z,15.12
2023-05-04T22:28:46.085Z,15.00
2023-05-04T22:33:48.767Z,14.97
2023-05-04T22:38:53.181Z,14.78
2023-05-04T22:43:55.957Z,14.85
2023-05-04T22:48:58.646Z,14.80
2023-05-04T22:54:02.668Z,14.79
2023-05-04T22:59:06.217Z,14.68
2023-05-04T23:04:08.950Z,14.67
2023-05-04T23:09:14.148Z,14.54
2023-05-04T23:14:16.814Z,14.60
2023-05-04T23:19:19.484Z,14.47
2023-05-04T23:24:23.567Z,14.59
2023-05-04T23:29:26.362Z,14.48
2023-05-04T23:34:29.084Z,14.46
2023-05-04T23:39:33.126Z,14.50
2023-05-04T23:44:35.806Z,14.42
2023-05-04T23:49:38.481Z,14.45
2023-05-04T23:54:42.537Z,14.29
2023-05-04T23:59:45.193Z,14.26
